sensor_id;sensor_type;location;lat;lon;timestamp;P1;durP1;ratioP1;P2;durP2;ratioP2
9276;SDS011;4676;42.678;23.244;2022-08-21T00:01:19;8.73;;;5.77;;
9276;SDS011;4676;42.678;23.244;2022-08-21T00:03:50;12.10;;;6.27;;
9276;SDS011;4676;42.678;23.244;2022-08-21T00:06:17;6.87;;;6.07;;
9276;SDS011;4676;42.678;23.244;2022-08-21T00:08:44;8.53;;;6.87;;
9276;SDS011;4676;42.678;23.244;2022-08-21T00:11:12;9.77;;;6.57;;
9276;SDS011;4676;42.678;23.244;2022-08-21T00:13:39;7.37;;;6.67;;
9276;SDS011;4676;42.678;23.244;2022-08-21T00:16:07;7.17;;;6.47;;
9276;SDS011;4676;42.678;23.244;2022-08-21T00:18:34;9.83;;;6.67;;
9276;SDS011;4676;42.678;23.244;2022-08-21T00:21:01;13.50;;;6.97;;
9276;SDS011;4676;42.678;23.244;2022-08-21T00:23:28;6.87;;;6.27;;
9276;SDS011;4676;42.678;23.244;2022-08-21T00:25:55;7.90;;;7.23;;
9276;SDS011;4676;42.678;23.244;2022-08-21T00:28:23;11.23;;;6.83;;
9276;SDS011;4676;42.678;23.244;2022-08-21T00:30:50;6.47;;;6.07;;
9276;SDS011;4676;42.678;23.244;2022-08-21T00:33:16;8.13;;;7.43;;
9276;SDS011;4676;42.678;23.244;2022-08-21T00:35:43;7.83;;;6.57;;
9276;SDS011;4676;42.678;23.244;2022-08-21T00:38:10;7.53;;;6.27;;
9276;SDS011;4676;42.678;23.244;2022-08-21T00:40:39;9.63;;;6.93;;
9276;SDS011;4676;42.678;23.244;2022-08-21T00:43:08;9.77;;;6.53;;
9276;SDS011;4676;42.678;23.244;2022-08-21T00:45:39;8.00;;;6.83;;
9276;SDS011;4676;42.678;23.244;2022-08-21T00:48:06;7.03;;;6.33;;
9276;SDS011;4676;42.678;23.244;2022-08-21T00:50:34;7.80;;;6.17;;
9276;SDS011;4676;42.678;23.244;2022-08-21T00:53:06;6.77;;;5.97;;
9276;SDS011;4676;42.678;23.244;2022-08-21T00:55:36;7.87;;;7.13;;
9276;SDS011;4676;42.678;23.244;2022-08-21T00:58:04;10.47;;;6.23;;
9276;SDS011;4676;42.678;23.244;2022-08-21T01:00:34;7.67;;;6.93;;
9276;SDS011;4676;42.678;23.244;2022-08-21T01:03:06;9.00;;;6.67;;
9276;SDS011;4676;42.678;23.244;2022-08-21T01:05:36;13.73;;;7.00;;
9276;SDS011;4676;42.678;23.244;2022-08-21T01:08:03;7.37;;;6.40;;
9276;SDS011;4676;42.678;23.244;2022-08-21T01:10:30;8.57;;;5.83;;
9276;SDS011;4676;42.678;23.244;2022-08-21T01:12:57;9.60;;;5.97;;
9276;SDS011;4676;42.678;23.244;2022-08-21T01:15:25;7.10;;;5.80;;
9276;SDS011;4676;42.678;23.244;2022-08-21T01:17:56;8.77;;;5.73;;
9276;SDS011;4676;42.678;23.244;2022-08-21T01:20:25;15.37;;;6.90;;
9276;SDS011;4676;42.678;23.244;2022-08-21T01:22:53;11.80;;;6.40;;
9276;SDS011;4676;42.678;23.244;2022-08-21T01:25:20;7.83;;;5.73;;
9276;SDS011;4676;42.678;23.244;2022-08-21T01:27:47;7.53;;;6.57;;
9276;SDS011;4676;42.678;23.244;2022-08-21T01:30:14;8.43;;;6.47;;
9276;SDS011;4676;42.678;23.244;2022-08-21T01:32:45;8.53;;;6.07;;
9276;SDS011;4676;42.678;23.244;2022-08-21T01:35:14;6.33;;;5.77;;
9276;SDS011;4676;42.678;23.244;2022-08-21T01:37:43;10.17;;;6.17;;
9276;SDS011;4676;42.678;23.244;2022-08-21T01:40:12;7.60;;;6.63;;
9276;SDS011;4676;42.678;23.244;2022-08-21T01:42:41;7.53;;;6.20;;
9276;SDS011;4676;42.678;23.244;2022-08-21T01:45:08;6.97;;;6.17;;
9276;SDS011;4676;42.678;23.244;2022-08-21T01:47:36;9.43;;;6.07;;
9276;SDS011;4676;42.678;23.244;2022-08-21T01:50:04;6.43;;;6.00;;
9276;SDS011;4676;42.678;23.244;2022-08-21T01:52:32;6.57;;;5.30;;
9276;SDS011;4676;42.678;23.244;2022-08-21T01:54:58;9.73;;;5.70;;
9276;SDS011;4676;42.678;23.244;2022-08-21T01:57:27;5.63;;;4.77;;
9276;SDS011;4676;42.678;23.244;2022-08-21T01:59:53;5.60;;;4.93;;
9276;SDS011;4676;42.678;23.244;2022-08-21T02:02:20;8.33;;;5.27;;
9276;SDS011;4676;42.678;23.244;2022-08-21T02:04:47;5.37;;;5.00;;
9276;SDS011;4676;42.678;23.244;2022-08-21T02:07:14;6.33;;;5.73;;
9276;SDS011;4676;42.678;23.244;2022-08-21T02:09:41;9.97;;;5.37;;
9276;SDS011;4676;42.678;23.244;2022-08-21T02:12:08;6.70;;;5.97;;
9276;SDS011;4676;42.678;23.244;2022-08-21T02:14:36;10.43;;;5.37;;
9276;SDS011;4676;42.678;23.244;2022-08-21T02:17:04;7.97;;;6.70;;
9276;SDS011;4676;42.678;23.244;2022-08-21T02:19:30;9.23;;;7.20;;
9276;SDS011;4676;42.678;23.244;2022-08-21T02:21:57;11.23;;;8.83;;
9276;SDS011;4676;42.678;23.244;2022-08-21T02:24:24;11.37;;;9.27;;
9276;SDS011;4676;42.678;23.244;2022-08-21T02:26:50;10.93;;;9.20;;
9276;SDS011;4676;42.678;23.244;2022-08-21T02:29:17;10.67;;;8.40;;
9276;SDS011;4676;42.678;23.244;2022-08-21T02:31:45;10.23;;;8.37;;
9276;SDS011;4676;42.678;23.244;2022-08-21T02:34:12;7.43;;;6.73;;
9276;SDS011;4676;42.678;23.244;2022-08-21T02:36:39;10.30;;;7.73;;
9276;SDS011;4676;42.678;23.244;2022-08-21T02:39:05;9.30;;;7.90;;
9276;SDS011;4676;42.678;23.244;2022-08-21T02:41:32;10.47;;;9.03;;
9276;SDS011;4676;42.678;23.244;2022-08-21T02:43:59;10.30;;;7.67;;
9276;SDS011;4676;42.678;23.244;2022-08-21T02:46:25;9.67;;;7.27;;
9276;SDS011;4676;42.678;23.244;2022-08-21T02:48:54;9.80;;;8.27;;
9276;SDS011;4676;42.678;23.244;2022-08-21T02:51:20;9.37;;;8.30;;
9276;SDS011;4676;42.678;23.244;2022-08-21T02:53:48;8.40;;;7.07;;
9276;SDS011;4676;42.678;23.244;2022-08-21T02:56:16;8.83;;;7.60;;
9276;SDS011;4676;42.678;23.244;2022-08-21T02:58:46;7.97;;;7.27;;
9276;SDS011;4676;42.678;23.244;2022-08-21T03:01:16;11.87;;;7.90;;
9276;SDS011;4676;42.678;23.244;2022-08-21T03:03:44;14.83;;;7.97;;
9276;SDS011;4676;42.678;23.244;2022-08-21T03:06:16;11.23;;;8.83;;
9276;SDS011;4676;42.678;23.244;2022-08-21T03:08:45;10.87;;;8.80;;
9276;SDS011;4676;42.678;23.244;2022-08-21T03:11:12;11.33;;;8.00;;
9276;SDS011;4676;42.678;23.244;2022-08-21T03:13:40;17.83;;;8.13;;
9276;SDS011;4676;42.678;23.244;2022-08-21T03:16:07;8.47;;;7.63;;
9276;SDS011;4676;42.678;23.244;2022-08-21T03:18:34;9.83;;;7.77;;
9276;SDS011;4676;42.678;23.244;2022-08-21T03:21:01;9.47;;;8.03;;
9276;SDS011;4676;42.678;23.244;2022-08-21T03:23:29;8.17;;;7.40;;
9276;SDS011;4676;42.678;23.244;2022-08-21T03:25:57;8.07;;;7.30;;
9276;SDS011;4676;42.678;23.244;2022-08-21T03:28:24;8.13;;;7.03;;
9276;SDS011;4676;42.678;23.244;2022-08-21T03:30:51;7.20;;;6.43;;
9276;SDS011;4676;42.678;23.244;2022-08-21T03:33:19;10.30;;;6.33;;
9276;SDS011;4676;42.678;23.244;2022-08-21T03:35:47;8.33;;;6.23;;
9276;SDS011;4676;42.678;23.244;2022-08-21T03:38:19;5.97;;;5.13;;
9276;SDS011;4676;42.678;23.244;2022-08-21T03:40:48;8.67;;;5.07;;
9276;SDS011;4676;42.678;23.244;2022-08-21T03:43:15;10.03;;;5.37;;
9276;SDS011;4676;42.678;23.244;2022-08-21T03:45:41;10.20;;;5.13;;
9276;SDS011;4676;42.678;23.244;2022-08-21T03:48:08;9.37;;;5.13;;
9276;SDS011;4676;42.678;23.244;2022-08-21T03:50:38;8.83;;;4.97;;
9276;SDS011;4676;42.678;23.244;2022-08-21T03:53:06;8.77;;;5.50;;
9276;SDS011;4676;42.678;23.244;2022-08-21T03:55:33;5.77;;;4.57;;
9276;SDS011;4676;42.678;23.244;2022-08-21T03:58:01;6.10;;;4.47;;
9276;SDS011;4676;42.678;23.244;2022-08-21T04:00:29;5.63;;;5.23;;
9276;SDS011;4676;42.678;23.244;2022-08-21T04:02:56;5.13;;;4.83;;
9276;SDS011;4676;42.678;23.244;2022-08-21T04:05:22;11.93;;;9.80;;
9276;SDS011;4676;42.678;23.244;2022-08-21T04:07:56;16.17;;;11.40;;
9276;SDS011;4676;42.678;23.244;2022-08-21T04:10:24;16.30;;;11.77;;
9276;SDS011;4676;42.678;23.244;2022-08-21T04:12:53;17.80;;;11.90;;
9276;SDS011;4676;42.678;23.244;2022-08-21T04:15:23;17.87;;;11.67;;
9276;SDS011;4676;42.678;23.244;2022-08-21T04:17:51;23.20;;;14.77;;
9276;SDS011;4676;42.678;23.244;2022-08-21T04:20:18;28.60;;;14.70;;
9276;SDS011;4676;42.678;23.244;2022-08-21T04:22:46;29.43;;;14.60;;
9276;SDS011;4676;42.678;23.244;2022-08-21T04:25:15;25.07;;;15.00;;
9276;SDS011;4676;42.678;23.244;2022-08-21T04:27:43;33.67;;;15.47;;
9276;SDS011;4676;42.678;23.244;2022-08-21T04:30:11;25.10;;;15.10;;
9276;SDS011;4676;42.678;23.244;2022-08-21T04:32:43;25.50;;;16.03;;
9276;SDS011;4676;42.678;23.244;2022-08-21T04:35:11;23.10;;;15.37;;
9276;SDS011;4676;42.678;23.244;2022-08-21T04:37:39;22.63;;;14.10;;
9276;SDS011;4676;42.678;23.244;2022-08-21T04:40:06;26.77;;;15.40;;
9276;SDS011;4676;42.678;23.244;2022-08-21T04:42:40;26.20;;;13.73;;
9276;SDS011;4676;42.678;23.244;2022-08-21T04:45:09;23.93;;;13.97;;
9276;SDS011;4676;42.678;23.244;2022-08-21T04:47:43;25.13;;;13.60;;
9276;SDS011;4676;42.678;23.244;2022-08-21T04:50:09;18.73;;;12.83;;
9276;SDS011;4676;42.678;23.244;2022-08-21T04:52:36;18.67;;;12.43;;
9276;SDS011;4676;42.678;23.244;2022-08-21T04:55:03;20.80;;;13.90;;
9276;SDS011;4676;42.678;23.244;2022-08-21T04:57:31;21.10;;;12.30;;
9276;SDS011;4676;42.678;23.244;2022-08-21T04:59:58;18.30;;;12.40;;
9276;SDS011;4676;42.678;23.244;2022-08-21T05:02:25;20.97;;;13.30;;
9276;SDS011;4676;42.678;23.244;2022-08-21T05:04:53;13.60;;;8.93;;
9276;SDS011;4676;42.678;23.244;2022-08-21T05:07:22;11.47;;;8.00;;
9276;SDS011;4676;42.678;23.244;2022-08-21T05:09:52;12.60;;;7.67;;
9276;SDS011;4676;42.678;23.244;2022-08-21T05:12:20;8.90;;;6.97;;
9276;SDS011;4676;42.678;23.244;2022-08-21T05:14:48;8.57;;;6.27;;
9276;SDS011;4676;42.678;23.244;2022-08-21T05:17:15;7.37;;;6.77;;
9276;SDS011;4676;42.678;23.244;2022-08-21T05:19:41;8.27;;;7.40;;
9276;SDS011;4676;42.678;23.244;2022-08-21T05:22:10;7.27;;;6.63;;
9276;SDS011;4676;42.678;23.244;2022-08-21T05:24:36;10.60;;;6.87;;
9276;SDS011;4676;42.678;23.244;2022-08-21T05:27:03;8.40;;;6.40;;
9276;SDS011;4676;42.678;23.244;2022-08-21T05:29:32;7.17;;;6.23;;
9276;SDS011;4676;42.678;23.244;2022-08-21T05:31:59;7.03;;;6.43;;
9276;SDS011;4676;42.678;23.244;2022-08-21T05:34:26;10.43;;;6.50;;
9276;SDS011;4676;42.678;23.244;2022-08-21T05:36:52;12.87;;;7.00;;
9276;SDS011;4676;42.678;23.244;2022-08-21T05:39:21;9.90;;;6.90;;
9276;SDS011;4676;42.678;23.244;2022-08-21T05:41:47;8.97;;;6.47;;
9276;SDS011;4676;42.678;23.244;2022-08-21T05:44:14;7.67;;;6.70;;
9276;SDS011;4676;42.678;23.244;2022-08-21T05:46:41;9.60;;;6.40;;
9276;SDS011;4676;42.678;23.244;2022-08-21T05:49:07;9.07;;;7.23;;
9276;SDS011;4676;42.678;23.244;2022-08-21T05:51:34;6.70;;;6.03;;
9276;SDS011;4676;42.678;23.244;2022-08-21T05:54:01;9.63;;;6.70;;
9276;SDS011;4676;42.678;23.244;2022-08-21T05:56:30;8.10;;;6.50;;
9276;SDS011;4676;42.678;23.244;2022-08-21T05:58:56;8.00;;;6.20;;
9276;SDS011;4676;42.678;23.244;2022-08-21T06:01:23;7.20;;;6.43;;
9276;SDS011;4676;42.678;23.244;2022-08-21T06:03:50;8.37;;;6.23;;
9276;SDS011;4676;42.678;23.244;2022-08-21T06:06:17;7.00;;;6.10;;
9276;SDS011;4676;42.678;23.244;2022-08-21T06:08:44;6.23;;;5.73;;
9276;SDS011;4676;42.678;23.244;2022-08-21T06:11:11;6.10;;;5.50;;
9276;SDS011;4676;42.678;23.244;2022-08-21T06:13:39;6.90;;;5.43;;
9276;SDS011;4676;42.678;23.244;2022-08-21T06:16:07;4.97;;;4.57;;
9276;SDS011;4676;42.678;23.244;2022-08-21T06:18:35;6.80;;;4.20;;
9276;SDS011;4676;42.678;23.244;2022-08-21T06:21:03;8.50;;;6.20;;
9276;SDS011;4676;42.678;23.244;2022-08-21T06:23:30;6.90;;;5.27;;
9276;SDS011;4676;42.678;23.244;2022-08-21T06:25:57;4.73;;;4.43;;
9276;SDS011;4676;42.678;23.244;2022-08-21T06:28:24;13.17;;;9.57;;
9276;SDS011;4676;42.678;23.244;2022-08-21T06:30:52;19.30;;;10.10;;
9276;SDS011;4676;42.678;23.244;2022-08-21T06:33:18;14.83;;;10.43;;
9276;SDS011;4676;42.678;23.244;2022-08-21T06:35:45;14.23;;;10.90;;
9276;SDS011;4676;42.678;23.244;2022-08-21T06:38:12;15.63;;;10.70;;
9276;SDS011;4676;42.678;23.244;2022-08-21T06:40:39;13.03;;;9.63;;
9276;SDS011;4676;42.678;23.244;2022-08-21T06:43:06;10.87;;;9.77;;
9276;SDS011;4676;42.678;23.244;2022-08-21T06:45:34;16.83;;;10.00;;
9276;SDS011;4676;42.678;23.244;2022-08-21T06:48:03;13.67;;;9.53;;
9276;SDS011;4676;42.678;23.244;2022-08-21T06:50:31;15.20;;;9.97;;
9276;SDS011;4676;42.678;23.244;2022-08-21T06:52:59;11.63;;;9.97;;
9276;SDS011;4676;42.678;23.244;2022-08-21T06:55:27;17.30;;;9.13;;
9276;SDS011;4676;42.678;23.244;2022-08-21T06:57:54;13.43;;;10.00;;
9276;SDS011;4676;42.678;23.244;2022-08-21T07:00:21;13.77;;;10.00;;
9276;SDS011;4676;42.678;23.244;2022-08-21T07:02:47;14.57;;;11.37;;
9276;SDS011;4676;42.678;23.244;2022-08-21T07:05:16;14.60;;;9.77;;
9276;SDS011;4676;42.678;23.244;2022-08-21T07:07:43;13.43;;;10.93;;
9276;SDS011;4676;42.678;23.244;2022-08-21T07:10:10;12.33;;;10.17;;
9276;SDS011;4676;42.678;23.244;2022-08-21T07:12:37;16.27;;;9.47;;
9276;SDS011;4676;42.678;23.244;2022-08-21T07:15:04;11.07;;;9.70;;
9276;SDS011;4676;42.678;23.244;2022-08-21T07:17:32;15.60;;;9.60;;
9276;SDS011;4676;42.678;23.244;2022-08-21T07:19:58;13.03;;;9.73;;
9276;SDS011;4676;42.678;23.244;2022-08-21T07:22:26;10.20;;;9.13;;
9276;SDS011;4676;42.678;23.244;2022-08-21T07:24:53;8.67;;;7.87;;
9276;SDS011;4676;42.678;23.244;2022-08-21T07:27:20;12.77;;;9.20;;
9276;SDS011;4676;42.678;23.244;2022-08-21T07:29:47;11.00;;;6.80;;
9276;SDS011;4676;42.678;23.244;2022-08-21T07:32:14;9.07;;;7.77;;
9276;SDS011;4676;42.678;23.244;2022-08-21T07:34:41;9.10;;;7.73;;
9276;SDS011;4676;42.678;23.244;2022-08-21T07:37:08;12.40;;;8.40;;
9276;SDS011;4676;42.678;23.244;2022-08-21T07:39:36;12.83;;;9.53;;
9276;SDS011;4676;42.678;23.244;2022-08-21T07:42:03;9.83;;;8.17;;
9276;SDS011;4676;42.678;23.244;2022-08-21T07:44:30;9.60;;;7.50;;
9276;SDS011;4676;42.678;23.244;2022-08-21T07:46:56;13.47;;;8.33;;
9276;SDS011;4676;42.678;23.244;2022-08-21T07:49:23;9.50;;;7.27;;
9276;SDS011;4676;42.678;23.244;2022-08-21T07:51:50;11.63;;;8.10;;
9276;SDS011;4676;42.678;23.244;2022-08-21T07:54:17;9.73;;;8.77;;
9276;SDS011;4676;42.678;23.244;2022-08-21T07:56:45;12.27;;;8.70;;
9276;SDS011;4676;42.678;23.244;2022-08-21T07:59:12;15.27;;;8.30;;
9276;SDS011;4676;42.678;23.244;2022-08-21T08:01:38;10.07;;;8.60;;
9276;SDS011;4676;42.678;23.244;2022-08-21T08:04:05;17.77;;;9.27;;
9276;SDS011;4676;42.678;23.244;2022-08-21T08:06:32;10.20;;;8.93;;
9276;SDS011;4676;42.678;23.244;2022-08-21T08:08:59;14.67;;;9.47;;
9276;SDS011;4676;42.678;23.244;2022-08-21T08:11:28;8.87;;;8.07;;
9276;SDS011;4676;42.678;23.244;2022-08-21T08:13:56;10.73;;;9.00;;
9276;SDS011;4676;42.678;23.244;2022-08-21T08:16:24;10.30;;;8.97;;
9276;SDS011;4676;42.678;23.244;2022-08-21T08:18:51;12.20;;;9.17;;
9276;SDS011;4676;42.678;23.244;2022-08-21T08:21:19;12.30;;;9.93;;
9276;SDS011;4676;42.678;23.244;2022-08-21T08:23:46;9.90;;;9.10;;
9276;SDS011;4676;42.678;23.244;2022-08-21T08:26:13;20.00;;;9.83;;
9276;SDS011;4676;42.678;23.244;2022-08-21T08:28:40;15.93;;;10.00;;
9276;SDS011;4676;42.678;23.244;2022-08-21T08:31:08;10.43;;;9.27;;
9276;SDS011;4676;42.678;23.244;2022-08-21T08:33:35;10.70;;;8.60;;
9276;SDS011;4676;42.678;23.244;2022-08-21T08:36:02;16.73;;;9.33;;
9276;SDS011;4676;42.678;23.244;2022-08-21T08:38:29;10.13;;;9.13;;
9276;SDS011;4676;42.678;23.244;2022-08-21T08:41:00;10.63;;;9.03;;
9276;SDS011;4676;42.678;23.244;2022-08-21T08:43:33;11.23;;;9.23;;
9276;SDS011;4676;42.678;23.244;2022-08-21T08:46:12;9.30;;;8.43;;
9276;SDS011;4676;42.678;23.244;2022-08-21T08:48:46;8.33;;;7.60;;
9276;SDS011;4676;42.678;23.244;2022-08-21T08:51:18;10.40;;;7.83;;
9276;SDS011;4676;42.678;23.244;2022-08-21T08:53:51;7.50;;;6.83;;
9276;SDS011;4676;42.678;23.244;2022-08-21T08:56:22;7.87;;;7.20;;
9276;SDS011;4676;42.678;23.244;2022-08-21T08:58:53;7.80;;;6.90;;
9276;SDS011;4676;42.678;23.244;2022-08-21T09:01:26;8.10;;;6.97;;
9276;SDS011;4676;42.678;23.244;2022-08-21T09:03:53;8.90;;;8.00;;
9276;SDS011;4676;42.678;23.244;2022-08-21T09:09:18;7.60;;;6.73;;
9276;SDS011;4676;42.678;23.244;2022-08-21T09:11:57;6.73;;;5.87;;
9276;SDS011;4676;42.678;23.244;2022-08-21T09:14:31;10.63;;;7.63;;
9276;SDS011;4676;42.678;23.244;2022-08-21T09:17:13;8.17;;;7.43;;
9276;SDS011;4676;42.678;23.244;2022-08-21T09:19:55;8.17;;;7.30;;
9276;SDS011;4676;42.678;23.244;2022-08-21T09:22:33;6.93;;;6.07;;
9276;SDS011;4676;42.678;23.244;2022-08-21T09:25:08;8.13;;;7.43;;
9276;SDS011;4676;42.678;23.244;2022-08-21T09:27:42;9.97;;;6.90;;
9276;SDS011;4676;42.678;23.244;2022-08-21T09:30:09;7.60;;;6.33;;
9276;SDS011;4676;42.678;23.244;2022-08-21T09:32:38;13.37;;;6.30;;
9276;SDS011;4676;42.678;23.244;2022-08-21T09:35:07;6.23;;;5.63;;
9276;SDS011;4676;42.678;23.244;2022-08-21T09:37:44;8.27;;;6.37;;
9276;SDS011;4676;42.678;23.244;2022-08-21T09:40:15;6.53;;;5.97;;
9276;SDS011;4676;42.678;23.244;2022-08-21T09:42:53;12.90;;;5.70;;
9276;SDS011;4676;42.678;23.244;2022-08-21T09:45:21;7.03;;;6.03;;
9276;SDS011;4676;42.678;23.244;2022-08-21T09:47:49;6.83;;;5.27;;
9276;SDS011;4676;42.678;23.244;2022-08-21T09:50:16;13.53;;;5.80;;
9276;SDS011;4676;42.678;23.244;2022-08-21T09:52:45;6.70;;;6.00;;
9276;SDS011;4676;42.678;23.244;2022-08-21T09:55:16;7.13;;;6.07;;
9276;SDS011;4676;42.678;23.244;2022-08-21T09:57:59;12.40;;;5.57;;
9276;SDS011;4676;42.678;23.244;2022-08-21T10:00:28;7.80;;;6.53;;
9276;SDS011;4676;42.678;23.244;2022-08-21T10:03:08;6.27;;;5.50;;
9276;SDS011;4676;42.678;23.244;2022-08-21T10:05:37;8.00;;;6.10;;
9276;SDS011;4676;42.678;23.244;2022-08-21T10:08:05;7.30;;;5.40;;
9276;SDS011;4676;42.678;23.244;2022-08-21T10:10:43;9.80;;;5.93;;
9276;SDS011;4676;42.678;23.244;2022-08-21T10:13:11;6.60;;;5.00;;
9276;SDS011;4676;42.678;23.244;2022-08-21T10:15:44;6.13;;;5.53;;
9276;SDS011;4676;42.678;23.244;2022-08-21T10:18:20;9.70;;;5.30;;
9276;SDS011;4676;42.678;23.244;2022-08-21T10:20:52;6.30;;;5.30;;
9276;SDS011;4676;42.678;23.244;2022-08-21T10:23:35;5.33;;;4.30;;
9276;SDS011;4676;42.678;23.244;2022-08-21T10:26:16;6.93;;;4.87;;
9276;SDS011;4676;42.678;23.244;2022-08-21T10:28:51;10.10;;;4.77;;
9276;SDS011;4676;42.678;23.244;2022-08-21T10:31:28;5.63;;;4.60;;
9276;SDS011;4676;42.678;23.244;2022-08-21T10:34:08;6.30;;;4.83;;
9276;SDS011;4676;42.678;23.244;2022-08-21T10:36:47;7.47;;;5.17;;
9276;SDS011;4676;42.678;23.244;2022-08-21T10:39:25;5.17;;;4.77;;
9276;SDS011;4676;42.678;23.244;2022-08-21T10:42:02;5.70;;;5.20;;
9276;SDS011;4676;42.678;23.244;2022-08-21T10:44:49;6.30;;;5.10;;
9276;SDS011;4676;42.678;23.244;2022-08-21T10:47:27;6.70;;;4.30;;
9276;SDS011;4676;42.678;23.244;2022-08-21T10:50:01;7.87;;;4.80;;
9276;SDS011;4676;42.678;23.244;2022-08-21T10:52:39;5.37;;;4.60;;
9276;SDS011;4676;42.678;23.244;2022-08-21T10:55:20;8.30;;;5.03;;
9276;SDS011;4676;42.678;23.244;2022-08-21T10:57:49;5.87;;;5.27;;
9276;SDS011;4676;42.678;23.244;2022-08-21T11:00:21;6.50;;;5.60;;
9276;SDS011;4676;42.678;23.244;2022-08-21T11:02:50;8.63;;;5.30;;
9276;SDS011;4676;42.678;23.244;2022-08-21T11:05:25;5.57;;;4.90;;
9276;SDS011;4676;42.678;23.244;2022-08-21T11:07:58;5.70;;;5.23;;
9276;SDS011;4676;42.678;23.244;2022-08-21T11:10:31;8.70;;;5.17;;
9276;SDS011;4676;42.678;23.244;2022-08-21T11:13:04;6.90;;;4.87;;
9276;SDS011;4676;42.678;23.244;2022-08-21T11:15:38;5.10;;;4.70;;
9276;SDS011;4676;42.678;23.244;2022-08-21T11:18:14;6.27;;;4.97;;
9276;SDS011;4676;42.678;23.244;2022-08-21T11:20:50;6.73;;;5.50;;
9276;SDS011;4676;42.678;23.244;2022-08-21T11:23:32;7.73;;;5.27;;
9276;SDS011;4676;42.678;23.244;2022-08-21T11:26:07;8.17;;;5.80;;
9276;SDS011;4676;42.678;23.244;2022-08-21T11:28:41;8.07;;;5.80;;
9276;SDS011;4676;42.678;23.244;2022-08-21T11:31:14;5.57;;;5.10;;
9276;SDS011;4676;42.678;23.244;2022-08-21T11:33:55;7.10;;;6.00;;
9276;SDS011;4676;42.678;23.244;2022-08-21T11:36:38;6.03;;;5.37;;
9276;SDS011;4676;42.678;23.244;2022-08-21T11:39:14;5.50;;;5.13;;
9276;SDS011;4676;42.678;23.244;2022-08-21T11:41:46;10.43;;;5.43;;
9276;SDS011;4676;42.678;23.244;2022-08-21T11:44:24;9.57;;;5.33;;
9276;SDS011;4676;42.678;23.244;2022-08-21T11:47:01;5.60;;;5.10;;
9276;SDS011;4676;42.678;23.244;2022-08-21T11:49:42;5.77;;;5.20;;
9276;SDS011;4676;42.678;23.244;2022-08-21T11:52:18;8.63;;;5.10;;
9276;SDS011;4676;42.678;23.244;2022-08-21T11:54:52;5.90;;;5.07;;
9276;SDS011;4676;42.678;23.244;2022-08-21T11:57:25;5.67;;;4.43;;
9276;SDS011;4676;42.678;23.244;2022-08-21T11:59:57;4.47;;;4.10;;
9276;SDS011;4676;42.678;23.244;2022-08-21T12:02:29;5.07;;;4.67;;
9276;SDS011;4676;42.678;23.244;2022-08-21T12:05:00;6.63;;;3.90;;
9276;SDS011;4676;42.678;23.244;2022-08-21T12:07:34;5.90;;;4.30;;
9276;SDS011;4676;42.678;23.244;2022-08-21T12:10:06;11.20;;;4.63;;
9276;SDS011;4676;42.678;23.244;2022-08-21T12:12:35;5.07;;;4.43;;
9276;SDS011;4676;42.678;23.244;2022-08-21T12:15:06;11.50;;;4.90;;
9276;SDS011;4676;42.678;23.244;2022-08-21T12:17:41;6.70;;;4.70;;
9276;SDS011;4676;42.678;23.244;2022-08-21T12:20:23;5.10;;;4.60;;
9276;SDS011;4676;42.678;23.244;2022-08-21T12:23:04;6.17;;;4.63;;
9276;SDS011;4676;42.678;23.244;2022-08-21T12:25:41;5.57;;;4.53;;
9276;SDS011;4676;42.678;23.244;2022-08-21T12:28:10;6.47;;;4.27;;
9276;SDS011;4676;42.678;23.244;2022-08-21T12:30:39;4.60;;;4.30;;
9276;SDS011;4676;42.678;23.244;2022-08-21T12:33:18;8.27;;;4.50;;
9276;SDS011;4676;42.678;23.244;2022-08-21T12:35:48;6.43;;;4.73;;
9276;SDS011;4676;42.678;23.244;2022-08-21T12:38:19;4.77;;;4.10;;
9276;SDS011;4676;42.678;23.244;2022-08-21T12:40:52;5.73;;;4.93;;
9276;SDS011;4676;42.678;23.244;2022-08-21T12:43:21;7.97;;;4.47;;
9276;SDS011;4676;42.678;23.244;2022-08-21T12:45:52;5.53;;;5.03;;
9276;SDS011;4676;42.678;23.244;2022-08-21T12:48:20;6.40;;;4.57;;
9276;SDS011;4676;42.678;23.244;2022-08-21T12:50:52;4.90;;;4.43;;
9276;SDS011;4676;42.678;23.244;2022-08-21T12:53:25;6.77;;;4.73;;
9276;SDS011;4676;42.678;23.244;2022-08-21T12:55:56;4.63;;;4.17;;
9276;SDS011;4676;42.678;23.244;2022-08-21T12:58:26;6.07;;;4.50;;
9276;SDS011;4676;42.678;23.244;2022-08-21T13:00:54;4.87;;;4.43;;
9276;SDS011;4676;42.678;23.244;2022-08-21T13:03:25;4.97;;;4.57;;
9276;SDS011;4676;42.678;23.244;2022-08-21T13:05:52;4.63;;;3.87;;
9276;SDS011;4676;42.678;23.244;2022-08-21T13:08:19;5.43;;;4.37;;
9276;SDS011;4676;42.678;23.244;2022-08-21T13:10:55;4.77;;;4.47;;
9276;SDS011;4676;42.678;23.244;2022-08-21T13:13:25;8.17;;;4.20;;
9276;SDS011;4676;42.678;23.244;2022-08-21T13:15:56;5.40;;;4.07;;
9276;SDS011;4676;42.678;23.244;2022-08-21T13:18:25;7.67;;;3.77;;
9276;SDS011;4676;42.678;23.244;2022-08-21T13:21:02;4.90;;;4.07;;
9276;SDS011;4676;42.678;23.244;2022-08-21T13:23:32;5.80;;;4.27;;
9276;SDS011;4676;42.678;23.244;2022-08-21T13:26:00;7.87;;;4.20;;
9276;SDS011;4676;42.678;23.244;2022-08-21T13:28:32;7.70;;;4.10;;
9276;SDS011;4676;42.678;23.244;2022-08-21T13:31:01;7.07;;;5.10;;
9276;SDS011;4676;42.678;23.244;2022-08-21T13:33:33;6.87;;;3.87;;
9276;SDS011;4676;42.678;23.244;2022-08-21T13:36:01;5.07;;;4.60;;
9276;SDS011;4676;42.678;23.244;2022-08-21T13:38:34;9.97;;;4.10;;
9276;SDS011;4676;42.678;23.244;2022-08-21T13:41:04;4.10;;;3.80;;
9276;SDS011;4676;42.678;23.244;2022-08-21T13:43:36;6.40;;;4.50;;
9276;SDS011;4676;42.678;23.244;2022-08-21T13:46:06;5.43;;;4.50;;
9276;SDS011;4676;42.678;23.244;2022-08-21T13:48:36;4.93;;;3.83;;
9276;SDS011;4676;42.678;23.244;2022-08-21T13:51:04;4.23;;;3.77;;
9276;SDS011;4676;42.678;23.244;2022-08-21T13:53:33;4.30;;;3.60;;
9276;SDS011;4676;42.678;23.244;2022-08-21T13:56:01;4.90;;;3.77;;
9276;SDS011;4676;42.678;23.244;2022-08-21T13:58:33;5.13;;;3.90;;
9276;SDS011;4676;42.678;23.244;2022-08-21T14:01:16;4.97;;;4.50;;
9276;SDS011;4676;42.678;23.244;2022-08-21T14:03:47;5.43;;;3.60;;
9276;SDS011;4676;42.678;23.244;2022-08-21T14:06:17;4.17;;;3.87;;
9276;SDS011;4676;42.678;23.244;2022-08-21T14:08:47;6.27;;;4.53;;
9276;SDS011;4676;42.678;23.244;2022-08-21T14:11:17;9.73;;;4.00;;
9276;SDS011;4676;42.678;23.244;2022-08-21T14:13:48;4.57;;;4.03;;
9276;SDS011;4676;42.678;23.244;2022-08-21T14:16:18;4.77;;;3.90;;
9276;SDS011;4676;42.678;23.244;2022-08-21T14:18:47;7.13;;;4.40;;
9276;SDS011;4676;42.678;23.244;2022-08-21T14:21:29;6.20;;;4.37;;
9276;SDS011;4676;42.678;23.244;2022-08-21T14:24:08;6.97;;;5.10;;
9276;SDS011;4676;42.678;23.244;2022-08-21T14:26:41;5.43;;;4.30;;
9276;SDS011;4676;42.678;23.244;2022-08-21T14:29:13;5.77;;;3.93;;
9276;SDS011;4676;42.678;23.244;2022-08-21T14:31:42;5.03;;;4.13;;
9276;SDS011;4676;42.678;23.244;2022-08-21T14:34:15;10.17;;;5.07;;
9276;SDS011;4676;42.678;23.244;2022-08-21T14:36:43;4.97;;;4.47;;
9276;SDS011;4676;42.678;23.244;2022-08-21T14:39:10;9.57;;;4.90;;
9276;SDS011;4676;42.678;23.244;2022-08-21T14:41:37;8.37;;;5.03;;
9276;SDS011;4676;42.678;23.244;2022-08-21T14:44:04;10.50;;;5.37;;
9276;SDS011;4676;42.678;23.244;2022-08-21T14:46:34;6.47;;;4.90;;
9276;SDS011;4676;42.678;23.244;2022-08-21T14:49:02;8.23;;;4.90;;
9276;SDS011;4676;42.678;23.244;2022-08-21T14:51:29;5.13;;;4.70;;
9276;SDS011;4676;42.678;23.244;2022-08-21T14:53:56;5.57;;;5.17;;
9276;SDS011;4676;42.678;23.244;2022-08-21T14:56:23;5.47;;;4.93;;
9276;SDS011;4676;42.678;23.244;2022-08-21T14:58:51;5.50;;;5.00;;
9276;SDS011;4676;42.678;23.244;2022-08-21T15:01:21;8.23;;;5.20;;
9276;SDS011;4676;42.678;23.244;2022-08-21T15:03:50;7.80;;;5.97;;
9276;SDS011;4676;42.678;23.244;2022-08-21T15:06:17;6.13;;;5.17;;
9276;SDS011;4676;42.678;23.244;2022-08-21T15:08:46;5.47;;;5.00;;
9276;SDS011;4676;42.678;23.244;2022-08-21T15:11:16;5.77;;;5.10;;
9276;SDS011;4676;42.678;23.244;2022-08-21T15:13:44;9.33;;;4.90;;